Flight Track Log - Related Links

Times and Time Zones

All times are in EDT time to prevent confusion due to time zone crossing. See the SWA1718 flight status page for this flight to view local times or setup timezone preferences in your user account.

Time Position Orientation Groundspeed Altitude Reporting Facility
EDT Latitude Longitude Course Direction KTS MPH feet Rate Location/Type
Tue 06:53:23 PM 39.8833 -104.4667 90° East 252 290 9,300  Level Denver TRACON
Tue 06:54:03 PM 39.8742 -104.4056 101° East 274 315 10,700 2,000 Climbing Denver Center
Tue 06:55:05 PM 39.8739 -104.2961 90° East 302 348 12,700 2,000 Climbing Denver Center
Tue 06:56:06 PM 39.8728 -104.1675 91° East 330 380 14,800 1,317 Climbing Denver Center
Tue 06:57:00 PM 39.8667 -103.8978 90° East  Level FlightAware Approximate
Tue 06:57:08 PM 39.8717 -104.0364 91° East 367 422 15,400  Level Denver Center
Tue 06:58:10 PM 39.8708 -103.8858 90° East 413 475 17,000 1,452 Climbing Denver Center
Tue 06:59:12 PM 39.8825 -103.7258 85° East 440 506 18,400 1,561 Climbing Denver Center
Tue 07:00:13 PM 39.9025 -103.5647 81° East 446 513 20,200 1,561 Climbing Denver Center
Tue 07:01:15 PM 39.9211 -103.3967 82° East 462 532 21,600 1,113 Climbing Denver Center
Tue 07:02:17 PM 39.9408 -103.2231 82° East 478 550 22,500 1,210 Climbing Denver Center
Tue 07:03:19 PM 39.9628 -103.0133 82° East 495 570 24,100 1,366 Climbing Denver Center
Tue 07:04:20 PM 39.9836 -102.8333 81° East 498 573 25,300 1,171 Climbing Denver Center
Tue 07:05:22 PM 40.0036 -102.6519 82° East 503 579 26,500 1,113 Climbing Denver Center
Tue 07:06:24 PM 40.0208 -102.4781 83° East 505 581 27,600 1,306 Climbing Denver Center
Tue 07:07:26 PM 40.0422 -102.2750 82° East 505 581 29,200 1,366 Climbing Denver Center
Tue 07:08:27 PM 40.0586 -102.1044 83° East 498 573 30,400 1,073 Climbing Denver Center
Tue 07:09:29 PM 40.0783 -101.9050 83° East 499 574 31,400 968 Climbing Denver Center
Tue 07:10:31 PM 40.0964 -101.7369 82° East 491 565 32,400 871 Climbing Denver Center
Tue 07:11:33 PM 40.1147 -101.5383 83° East 497 572 33,200 677 Climbing Denver Center
Tue 07:12:35 PM 40.1325 -101.3697 82° East 493 567 33,800 629 Climbing Denver Center
Tue 07:13:37 PM 40.1483 -101.2000 83° East 494 568 34,500 581 Climbing Denver Center
Tue 07:14:39 PM 40.1678 -101.0033 83° East 492 566 35,000 242 Climbing Denver Center
Tue 07:15:41 PM 40.1833 -100.8292 83° East 503 579 35,000  Level Denver Center
Tue 07:16:43 PM 40.2006 -100.6272 84° East 504 580 35,000  Level Denver Center
Tue 07:17:44 PM 40.2161 -100.4575 83° East 497 572 35,000  Level Denver Center
Tue 07:18:46 PM 40.2328 -100.2586 84° East 495 570 35,000  Level Denver Center
Tue 07:19:48 PM 40.2475 -100.0878 84° East 497 572 35,000  Level Denver Center
Tue 07:20:50 PM 40.2633 -99.8839 84° East 505 581 35,000  Level Denver Center
Tue 07:21:52 PM 40.2775 -99.7197 83° East 495 570 35,000  Level Denver Center
Tue 07:22:54 PM 40.2914 -99.5383 84° East 500 575 35,000  Level Denver Center
Tue 07:23:56 PM 40.3089 -99.3231 84° East 498 573 35,000  Level Denver Center
Tue 07:24:57 PM 40.3225 -99.1447 84° East 496 571 35,000  Level Denver Center
Tue 07:25:59 PM 40.3356 -98.9667 84° East 493 567 35,000  Level Denver Center
Tue 07:26:49 PM 40.3461 -98.8256 84° East 495 570 35,000  Level Minneapolis Center
Tue 07:27:51 PM 40.3586 -98.6478 85° East 493 567 35,000  Level Minneapolis Center
Tue 07:28:52 PM 40.3711 -98.4694 85° East 493 567 35,000  Level Minneapolis Center
Tue 07:29:54 PM 40.3864 -98.2578 85° East 490 564 35,000  Level Minneapolis Center
Tue 07:30:56 PM 40.3978 -98.0806 85° East 490 564 35,000  Level Minneapolis Center
Tue 07:31:57 PM 40.4092 -97.9042 85° East 489 563 35,000  Level Minneapolis Center
Tue 07:32:59 PM 40.4203 -97.7281 85° East 487 560 35,000  Level Minneapolis Center
Tue 07:34:01 PM 40.4314 -97.5517 85° East 486 559 35,000  Level Minneapolis Center
Tue 07:35:02 PM 40.4422 -97.3756 85° East 486 559 35,000  Level Minneapolis Center
Tue 07:36:04 PM 40.4528 -97.1944 86° East 485 558 35,000  Level Minneapolis Center
Tue 07:37:06 PM 40.4636 -97.0189 85° East 484 557 35,000  Level Minneapolis Center
Tue 07:38:08 PM 40.4725 -96.8431 86° East 485 558 35,000  Level Minneapolis Center
Tue 07:39:09 PM 40.4844 -96.6319 86° East 485 558 35,000  Level Minneapolis Center
Tue 07:40:11 PM 40.4936 -96.4572 86° East 483 556 35,000  Level Minneapolis Center
Tue 07:41:13 PM 40.5019 -96.2831 86° East 483 556 35,000  Level Minneapolis Center
Tue 07:42:14 PM 40.5114 -96.1064 86° East 485 558 35,000  Level Minneapolis Center
Tue 07:43:16 PM 40.5203 -95.9319 86° East 484 557 35,000  Level Minneapolis Center
Tue 07:44:18 PM 40.5278 -95.7550 87° East 485 558 35,000  Level Minneapolis Center
Tue 07:45:19 PM 40.5375 -95.5456 86° East 482 555 35,000  Level Minneapolis Center
Tue 07:46:21 PM 40.5458 -95.3706 86° East 482 555 35,000  Level Minneapolis Center
Tue 07:47:23 PM 40.5522 -95.1931 87° East 485 558 35,000  Level Minneapolis Center
Tue 07:48:24 PM 40.5603 -95.0161 87° East 486 559 35,000  Level Minneapolis Center
Tue 07:49:26 PM 40.5672 -94.8397 87° East 485 558 35,000  Level Minneapolis Center
Tue 07:50:28 PM 40.5736 -94.6622 87° East 486 559 35,000  Level Minneapolis Center
Tue 07:51:29 PM 40.5800 -94.4819 87° East 486 559 35,000  Level Minneapolis Center
Tue 07:52:31 PM 40.5858 -94.3047 87° East 487 560 35,000  Level Minneapolis Center
Tue 07:53:33 PM 40.5900 -94.0919 88° East 488 562 35,000  Level Minneapolis Center
Tue 07:54:34 PM 40.5994 -93.9150 86° East 488 562 35,000  Level Minneapolis Center
Tue 07:55:36 PM 40.6267 -93.7392 78° East 488 562 35,000  Level Minneapolis Center
Tue 07:56:37 PM 40.6544 -93.5628 78° East 490 564 35,000  Level Minneapolis Center
Tue 07:57:39 PM 40.6800 -93.3864 79° East 492 566 35,000  Level Minneapolis Center
Tue 07:58:41 PM 40.7061 -93.2094 79° East 492 566 35,000  Level Minneapolis Center
Tue 07:59:42 PM 40.7311 -93.0306 79° East 495 570 35,000  Level Minneapolis Center
Tue 08:00:44 PM 40.7619 -92.8153 79° East 497 572 35,000  Level Minneapolis Center
Tue 08:00:59 PM 40.7667 -92.7789 80° East 497 572 35,000  Level Chicago Center
Tue 08:02:01 PM 40.7917 -92.6003 79° East 496 571 35,000 -145 Level Chicago Center
Tue 08:03:03 PM 40.8156 -92.4206 80° East 497 572 34,700 -629 Descending Chicago Center
Tue 08:04:05 PM 40.8400 -92.2408 80° East 498 573 33,700 -968 Descending Chicago Center
Tue 08:05:07 PM 40.8633 -92.0622 80° East 495 570 32,700 -968 Descending Chicago Center
Tue 08:06:09 PM 40.8917 -91.8464 80° East 498 573 31,700 -927 Descending Chicago Center
Tue 08:07:10 PM 40.9147 -91.6622 81° East 508 585 30,800 -878 Descending Chicago Center
Tue 08:08:12 PM 40.9378 -91.4778 81° East 511 588 29,900 -1,016 Descending Chicago Center
Tue 08:09:14 PM 40.9622 -91.2850 80° East 511 588 28,700 -1,161 Descending Chicago Center
Tue 08:10:16 PM 40.9842 -91.1081 81° East 492 566 27,500 -1,113 Descending Chicago Center
Tue 08:11:18 PM 41.0053 -90.9422 80° East 462 532 26,400 -1,113 Descending Chicago Center
Tue 08:12:20 PM 41.0244 -90.7778 81° East 453 521 25,200 -1,210 Descending Chicago Center
Tue 08:13:22 PM 41.0436 -90.6200 81° East 437 503 23,900 -1,258 Descending Chicago Center
Tue 08:14:24 PM 41.0042 -90.4572 108° East 396 456 22,600 -1,113 Descending Chicago Center
Tue 08:15:26 PM 40.9558 -90.3247 116° Southeast 399 459 21,600 -1,016 Descending Chicago Center
Tue 08:16:28 PM 40.9067 -90.1881 115° Southeast 401 461 20,500 -1,016 Descending Chicago Center
Tue 08:17:30 PM 40.8594 -90.0578 116° Southeast 396 456 19,500 -1,016 Descending Chicago Center
Tue 08:18:32 PM 40.8122 -89.9342 117° Southeast 386 444 18,400 -919 Descending Chicago Center
Tue 08:19:34 PM 40.7839 -89.8114 107° East 365 420 17,600 -976 Descending Chicago Center
Tue 08:20:35 PM 40.7536 -89.6636 105° East 351 404 16,400 -1,024 Descending Chicago Center
Tue 08:21:37 PM 40.7356 -89.5383 101° East 359 413 15,500 -726 Descending Chicago Center
Tue 08:22:39 PM 40.7867 -89.4419 55° Northeast 362 417 14,900 -288 Descending Chicago Center
Tue 08:23:42 PM 40.8544 -89.3000 58° Northeast 380 437 14,900 -532 Level Chicago Center
Tue 08:24:43 PM 40.9133 -89.1822 56° Northeast 384 442 13,800 -1,463 Descending Chicago Center
Tue 08:25:45 PM 40.9869 -89.0872 44° Northeast 372 428 11,900 -1,887 Descending Chicago Center
Tue 08:26:47 PM 41.0639 -88.9819 46° Northeast 364 419 9,900 -968 Descending Chicago Center
Tue 08:27:49 PM 41.1303 -88.8925 45° Northeast 347 399 9,900  Level Chicago Center
Tue 08:28:52 PM 41.1975 -88.8006 46° Northeast 346 398 9,900 -774 Level Chicago Center
Tue 08:29:53 PM 41.2583 -88.7172 46° Northeast 323 372 8,300 -1,512 Descending Chicago Center
Tue 08:30:55 PM 41.3175 -88.6350 46° Northeast 312 359 6,800 -1,113 Descending Chicago Center
Tue 08:31:57 PM 41.3747 -88.5556 46° Northeast 302 348 6,000 -387 Descending Chicago Center
Tue 08:32:59 PM 41.4136 -88.4503 64° Northeast 278 320 6,000  Level Chicago Center
Tue 08:34:01 PM 41.4294 -88.3478 78° East 282 325 6,000 -823 Level Chicago Center
Tue 08:35:03 PM 41.4564 -88.2508 70° East 280 322 4,300 -968 Descending Chicago Center
Tue 08:36:05 PM 41.4822 -88.1594 69° East 267 307 4,000 -145 Descending Chicago Center
Tue 08:37:07 PM 41.5231 -88.0853 54° Northeast 256 295 4,000  Level Chicago Center
Tue 08:38:10 PM 41.5628 -88.0272 48° Northeast 229 264 4,000 -97 Level Chicago Center
Tue 08:39:11 PM 41.6083 -87.9761 40° Northeast 218 251 3,800 -488 Descending Chicago Center
Tue 08:40:13 PM 41.6586 -87.9117 44° Northeast 213 245 3,000 -397 Descending Chicago Center
Tue 08:41:12 PM 41.6833 -87.8667 54° Northeast 160 184 3,000 -384 Level Chicago TRACON
Tue 08:42:18 PM 41.7167 -87.8333 37° Northeast 148 170 2,200 -667 Descending Chicago TRACON
Tue 08:43:18 PM 41.7500 -87.8000 37° Northeast 114 131 1,600 -645 Descending Chicago TRACON
Tue 08:44:19 PM 41.7667 -87.7667 56° Northeast 124 143 900 -689 Descending Chicago TRACON
Tue 08:46:00 PM 41.7833 -87.7500 51° Northeast  Level FlightAware Approximate

Login

Don't have an account? Register now (free) for customized features, flight alerts, and more!